Flight Track Log - Related Links

Times and Time Zones

All times are in EDT time to prevent confusion due to time zone crossing. See the SWA1319 flight status page for this flight to view local times or setup timezone preferences in your user account.

Time Position Orientation Groundspeed Altitude Reporting Facility
EDT Latitude Longitude Course Direction KTS MPH feet Rate Location/Type
Thu 01:49:51 PM 33.5486 -86.7831 222° Southwest 191 220 1,300  Level Atlanta Center
Thu 01:51:05 PM 33.4994 -86.8364 222° Southwest 228 262 3,900 2,239 Climbing Atlanta Center
Thu 01:52:05 PM 33.4394 -86.8169 203° Southwest 233 268 6,300 2,650 Climbing Atlanta Center
Thu 01:53:05 PM 33.3758 -86.8572 208° Southwest 233 268 9,200 2,400 Climbing Atlanta Center
Thu 01:54:05 PM 33.3061 -86.8972 206° Southwest 261 300 11,100 2,250 Climbing Atlanta Center
Thu 01:55:05 PM 33.2383 -86.9397 208° Southwest 287 330 13,700 2,450 Climbing Atlanta Center
Thu 01:56:05 PM 33.1642 -86.9844 207° Southwest 298 343 16,000 1,500 Climbing Atlanta Center
Thu 01:57:05 PM 33.0794 -87.0311 205° Southwest 319 367 16,700 1,300 Climbing Atlanta Center
Thu 01:58:05 PM 32.9842 -87.0872 206° Southwest 354 407 18,600 1,850 Climbing Atlanta Center
Thu 01:59:05 PM 32.8931 -87.1433 207° Southwest 369 425 20,400 1,700 Climbing Atlanta Center
Thu 02:00:05 PM 32.7914 -87.1992 205° Southwest 383 441 22,000 1,400 Climbing Atlanta Center
Thu 02:01:05 PM 32.6897 -87.2597 207° Southwest 396 456 23,200 1,350 Climbing Atlanta Center
Thu 02:02:05 PM 32.5861 -87.3150 204° Southwest 408 470 24,700 1,650 Climbing Atlanta Center
Thu 02:03:05 PM 32.4800 -87.3800 207° Southwest 425 489 26,500 1,650 Climbing Atlanta Center
Thu 02:04:05 PM 32.3758 -87.4450 208° Southwest 425 489 28,000 1,200 Climbing Atlanta Center
Thu 02:05:05 PM 32.2697 -87.5072 206° Southwest 425 489 28,900 1,150 Climbing Atlanta Center
Thu 02:06:05 PM 32.1447 -87.5711 203° Southwest 431 496 30,300 1,300 Climbing Atlanta Center
Thu 02:07:05 PM 32.0389 -87.6306 205° Southwest 431 496 31,500 1,012 Climbing Atlanta Center
Thu 02:08:57 PM 31.8589 -87.7286 205° Southwest 425 489 33,200 862 Climbing Houston Center
Thu 02:09:59 PM 31.7306 -87.8003 205° Southwest 427 491 34,000 381 Climbing Houston Center
Thu 02:11:03 PM 31.6214 -87.8614 205° Southwest 432 497 34,000  Level Houston Center
Thu 02:12:04 PM 31.5128 -87.9228 206° Southwest 434 499 34,000  Level Houston Center
Thu 02:13:06 PM 31.4047 -87.9836 206° Southwest 431 496 34,000  Level Houston Center
Thu 02:14:08 PM 31.2978 -88.0431 205° Southwest 426 490 34,000  Level Houston Center
Thu 02:15:10 PM 31.1850 -88.1064 206° Southwest 425 489 34,000  Level Houston Center
Thu 02:16:12 PM 31.0772 -88.1658 205° Southwest 427 491 34,000  Level Houston Center
Thu 02:17:15 PM 30.9461 -88.2344 204° Southwest 431 496 34,000  Level Houston Center
Thu 02:18:17 PM 30.8378 -88.2958 206° Southwest 430 495 34,000  Level Houston Center
Thu 02:19:19 PM 30.7386 -88.3661 211° Southwest 423 487 34,000  Level Houston Center
Thu 02:20:21 PM 30.7161 -88.4878 258° West 392 451 34,000  Level Houston Center
Thu 02:21:25 PM 30.7061 -88.6172 265° West 388 447 34,000  Level Houston Center
Thu 02:22:25 PM 30.6958 -88.7431 265° West 390 449 34,000  Level Houston Center
Thu 02:23:27 PM 30.6872 -88.8678 265° West 388 447 34,000  Level Houston Center
Thu 02:24:30 PM 30.6772 -89.0086 265° West 384 442 34,000  Level Houston Center
Thu 02:25:32 PM 30.6678 -89.1308 265° West 383 441 34,000  Level Houston Center
Thu 02:26:34 PM 30.6589 -89.2514 265° West 379 436 34,000  Level Houston Center
Thu 02:27:36 PM 30.6503 -89.3733 265° West 380 437 34,000  Level Houston Center
Thu 02:28:38 PM 30.6389 -89.5194 265° West 381 438 34,000  Level Houston Center
Thu 02:29:40 PM 30.6297 -89.6394 265° West 377 434 34,000  Level Houston Center
Thu 02:30:43 PM 30.6194 -89.7600 264° West 379 436 34,000  Level Houston Center
Thu 02:31:45 PM 30.6097 -89.8806 265° West 381 438 34,000  Level Houston Center
Thu 02:32:47 PM 30.5983 -90.0258 265° West 384 442 34,000  Level Houston Center
Thu 02:33:49 PM 30.5875 -90.1464 264° West 381 438 34,000  Level Houston Center
Thu 02:34:51 PM 30.5767 -90.2656 264° West 376 433 34,000  Level Houston Center
Thu 02:35:53 PM 30.5661 -90.3850 264° West 373 429 34,000  Level Houston Center
Thu 02:36:55 PM 30.5553 -90.5058 264° West 379 436 34,000  Level Houston Center
Thu 02:37:58 PM 30.5428 -90.6489 264° West 375 432 34,000  Level Houston Center
Thu 02:39:01 PM 30.5311 -90.7697 264° West 378 435 34,000  Level Houston Center
Thu 02:40:02 PM 30.5206 -90.8900 264° West 377 434 34,000  Level Houston Center
Thu 02:41:04 PM 30.5103 -91.0097 264° West 375 432 34,000  Level Houston Center
Thu 02:42:07 PM 30.4986 -91.1306 264° West 378 435 34,000  Level Houston Center
Thu 02:43:08 PM 30.4869 -91.2506 264° West 377 434 34,000  Level Houston Center
Thu 02:44:11 PM 30.4661 -91.3928 260° West 373 429 34,000  Level Houston Center
Thu 02:45:13 PM 30.4439 -91.5078 257° West 368 423 34,000  Level Houston Center
Thu 02:46:15 PM 30.4206 -91.6228 257° West 367 422 34,000  Level Houston Center
Thu 02:47:17 PM 30.3175 -91.6739 203° Southwest 397 457 34,000  Level Houston Center
Thu 02:48:19 PM 30.2036 -91.7039 193° South 416 479 34,000  Level Houston Center
Thu 02:49:21 PM 30.0706 -91.7400 193° South 437 503 34,000  Level Houston Center
Thu 02:50:23 PM 29.9514 -91.7728 193° South 440 506 34,000  Level Houston Center
Thu 02:51:25 PM 29.8378 -91.8125 197° South 434 499 34,000  Level Houston Center
Thu 02:52:28 PM 29.7542 -91.9331 231° Southwest 403 464 34,000  Level Houston Center
Thu 02:53:30 PM 29.6903 -92.0381 235° Southwest 402 463 34,000  Level Houston Center
Thu 02:54:32 PM 29.6264 -92.1439 235° Southwest 402 463 34,000  Level Houston Center
Thu 02:55:34 PM 29.5633 -92.2514 236° Southwest 405 466 34,000  Level Houston Center
Thu 02:56:36 PM 29.5000 -92.3567 235° Southwest 402 463 34,000  Level Houston Center
Thu 02:57:38 PM 29.4811 -92.4719 259° West 394 453 34,000  Level Houston Center
Thu 02:58:40 PM 29.5064 -92.6133 282° West 379 436 34,000  Level Houston Center
Thu 02:59:43 PM 29.5281 -92.7336 282° West 382 440 34,000  Level Houston Center
Thu 03:00:45 PM 29.5486 -92.8528 281° West 382 440 34,000  Level Houston Center
Thu 03:01:47 PM 29.5697 -92.9714 282° West 380 437 34,000  Level Houston Center
Thu 03:02:49 PM 29.5889 -93.0878 281° West 375 432 34,000  Level Houston Center
Thu 03:03:51 PM 29.6092 -93.2075 281° West 378 435 34,000  Level Houston Center
Thu 03:04:53 PM 29.6333 -93.3400 282° West 379 436 34,000  Level Houston Center
Thu 03:05:55 PM 29.6522 -93.4572 281° West 375 432 34,000  Level Houston Center
Thu 03:06:58 PM 29.6717 -93.5742 281° West 373 429 34,000  Level Houston Center
Thu 03:08:00 PM 29.6953 -93.7131 281° West 371 427 34,000  Level Houston Center
Thu 03:09:02 PM 29.7144 -93.8292 281° West 369 425 34,000  Level Houston Center
Thu 03:10:04 PM 29.7333 -93.9450 281° West 371 427 34,000  Level Houston Center
Thu 03:11:06 PM 29.7533 -94.0625 281° West 374 430 34,000  Level Houston Center
Thu 03:12:08 PM 29.7728 -94.1794 281° West 374 430 34,000  Level Houston Center
Thu 03:13:10 PM 29.7914 -94.2964 280° West 373 429 34,000  Level Houston Center
Thu 03:14:13 PM 29.8136 -94.4328 281° West 364 419 34,000  Level Houston Center
Thu 03:15:15 PM 29.8314 -94.5483 280° West 368 423 34,000  Level Houston Center
Thu 03:16:17 PM 29.8511 -94.6658 281° West 375 432 34,000  Level Houston Center
Thu 03:17:19 PM 29.8700 -94.7833 281° West 377 434 34,000  Level Houston Center
Thu 03:18:21 PM 29.8875 -94.8967 280° West 366 421 34,000  Level Houston Center
Thu 03:19:23 PM 29.9083 -95.0336 280° West 366 421 34,000  Level Houston Center
Thu 03:20:25 PM 29.9278 -95.1464 281° West 365 420 34,000  Level Houston Center
Thu 03:21:28 PM 29.9478 -95.2597 282° West 367 422 34,000  Level Houston Center
Thu 03:22:30 PM 30.0294 -95.3381 320° Northwest 407 468 34,000  Level Houston Center
Thu 03:23:32 PM 30.1564 -95.3367 North 452 520 34,000  Level Houston Center
Thu 03:24:34 PM 30.3097 -95.3256 North 457 526 34,000  Level Houston Center
Thu 03:25:36 PM 30.4325 -95.3167 North 457 526 34,000  Level Houston Center
Thu 03:26:38 PM 30.5594 -95.3067 North 457 526 34,000  Level Houston Center
Thu 03:27:40 PM 30.6892 -95.2975 North 460 529 34,000  Level Houston Center
Thu 03:28:42 PM 30.8447 -95.2883 North 463 533 34,000  Level Houston Center
Thu 03:29:45 PM 30.9750 -95.2797 North 460 529 34,000  Level Houston Center
Thu 03:30:47 PM 31.1053 -95.2700 North 462 532 34,000  Level Houston Center
Thu 03:31:03 PM 31.1367 -95.2703 360° North 458 527 34,000  Level Fort Worth Center
Thu 03:32:03 PM 31.2681 -95.2625 North 464 534 34,000  Level Fort Worth Center
Thu 03:33:03 PM 31.3936 -95.2767 354° North 459 528 34,000  Level Fort Worth Center
Thu 03:34:03 PM 31.4742 -95.3575 319° Northwest 401 461 34,000  Level Fort Worth Center
Thu 03:35:03 PM 31.5489 -95.4486 314° West 397 457 34,000 -900 Level Fort Worth Center
Thu 03:36:03 PM 31.6253 -95.5397 315° West 388 447 32,200 -1,600 Descending Fort Worth Center
Thu 03:37:03 PM 31.6997 -95.6333 313° West 388 447 30,800 -1,850 Descending Fort Worth Center
Thu 03:38:03 PM 31.8211 -95.6578 350° North 393 452 28,500 -2,350 Descending Fort Worth Center
Thu 03:39:03 PM 31.9506 -95.6481 North 416 479 26,100 -2,250 Descending Fort Worth Center
Thu 03:40:03 PM 32.0861 -95.6406 North 450 518 24,000 -1,100 Descending Fort Worth Center
Thu 03:41:03 PM 32.2094 -95.6481 357° North 450 518 23,900 -1,000 Descending Fort Worth Center
Thu 03:42:03 PM 32.3325 -95.6506 359° North 445 512 22,000 -1,750 Descending Fort Worth Center
Thu 03:43:03 PM 32.4642 -95.6628 356° North 440 506 20,400 -1,450 Descending Fort Worth Center
Thu 03:44:03 PM 32.5567 -95.7028 340° North 397 457 19,100 -1,350 Descending Fort Worth Center
Thu 03:45:03 PM 32.6556 -95.7578 335° Northwest 363 418 17,700 -1,400 Descending Fort Worth Center
Thu 03:46:03 PM 32.7147 -95.8183 319° Northwest 331 381 16,300 -1,650 Descending Fort Worth Center
Thu 03:47:03 PM 32.7222 -95.9119 275° West 261 300 14,400 -1,700 Descending Fort Worth Center
Thu 03:48:03 PM 32.6917 -95.9767 241° Southwest 242 278 12,900 -1,650 Descending Fort Worth Center
Thu 03:49:03 PM 32.6611 -96.0611 247° West 248 285 11,100 -1,450 Descending Fort Worth Center
Thu 03:50:03 PM 32.6369 -96.1281 247° West 253 291 10,000 -550 Descending Fort Worth Center
Thu 03:51:03 PM 32.6042 -96.2125 245° Southwest 253 291 10,000  Level Fort Worth Center
Thu 03:52:03 PM 32.5608 -96.2672 227° Southwest 253 291 10,000  Level Fort Worth Center
Thu 03:53:03 PM 32.5072 -96.3294 224° Southwest 253 291 10,000 -500 Level Fort Worth Center
Thu 03:54:03 PM 32.5119 -96.3983 275° West 231 266 9,000 -750 Descending Fort Worth Center
Thu 03:55:03 PM 32.5481 -96.4744 299° West 238 274 8,500 -700 Descending Fort Worth Center
Thu 03:56:03 PM 32.5694 -96.5258 296° West 215 247 7,600 -1,200 Descending Fort Worth Center
Thu 03:57:03 PM 32.6053 -96.5822 307° West 202 232 6,100 -1,350 Descending Fort Worth Center
Thu 03:58:03 PM 32.6472 -96.6314 315° West 202 232 4,900 -947 Descending Fort Worth Center
Thu 03:58:57 PM 32.6833 -96.6667 321° Northwest 188 216 4,300 -1,041 Descending Dallas / Fort Worth TRACON
Thu 04:00:04 PM 32.7167 -96.7167 308° West 188 216 2,800 -793 Descending Dallas / Fort Worth TRACON
Thu 04:00:58 PM 32.7500 -96.7500 320° Northwest 186 214 2,700 -600 Descending Dallas / Fort Worth TRACON
Thu 04:02:04 PM 32.8000 -96.8000 320° Northwest 150 173 1,600 -616 Descending Dallas / Fort Worth TRACON
Thu 04:04:03 PM 32.8489 -96.8669 311° West 144 166 800 -403 Descending Fort Worth Center

Login

Don't have an account? Register now (free) for customized features, flight alerts, and more!